Time;durP1;ratioP1;P1;durP2;ratioP2;P2;SDS_P1;SDS_P2;PMS_P1;PMS_P2;Temp;Humidity;BMP_temperature;BMP_pressure;BME280_temperature;BME280_humidity;BME280_pressure;Samples;Min_cycle;Max_cycle;Signal;HPM_P1;HPM_P2
2021/11/17 02:27:31;;;;;;;95.47;36.35;;;7.40;93.40;;;;;;5059657;28;20038;-72
2021/11/17 02:30:08;;;;;;;106.15;37.92;;;7.40;93.50;;;;;;5032598;28;20047;-73
2021/11/17 02:32:48;;;;;;;102.22;36.78;;;7.40;93.50;;;;;;5055686;28;20036;-72
2021/11/17 02:35:29;;;;;;;105.55;37.88;;;7.40;93.50;;;;;;5041567;28;20033;-72
2021/11/17 02:38:08;;;;;;;109.47;38.95;;;7.40;93.50;;;;;;5040866;28;20042;-75
2021/11/17 02:40:58;;;;;;;103.38;37.20;;;7.40;93.60;;;;;;5049960;28;20123;-73
2021/11/17 02:43:26;;;;;;;93.35;35.63;;;7.50;93.60;;;;;;5047780;28;20394;-73
2021/11/17 02:46:14;;;;;;;100.72;37.17;;;7.40;93.50;;;;;;5064673;28;20036;-72
2021/11/17 02:48:40;;;;;;;104.13;37.38;;;7.50;93.60;;;;;;5047692;28;20069;-72
2021/11/17 02:51:14;;;;;;;105.93;38.67;;;7.50;93.50;;;;;;5032342;28;20055;-74
2021/11/17 02:53:47;;;;;;;112.18;39.15;;;7.50;93.40;;;;;;5038871;28;20044;-72
2021/11/17 02:56:44;;;;;;;111.63;39.53;;;7.50;93.50;;;;;;5040813;28;20041;-72
2021/11/17 02:59:19;;;;;;;95.95;37.33;;;7.50;93.50;;;;;;5039518;28;20052;-73
2021/11/17 03:01:45;;;;;;;106.55;37.58;;;7.50;93.60;;;;;;5043763;28;20150;-72
2021/11/17 03:04:51;;;;;;;109.78;39.45;;;7.50;93.60;;;;;;5039925;28;20063;-73
2021/11/17 03:07:26;;;;;;;104.50;38.45;;;7.50;93.60;;;;;;5052078;28;20080;-75
2021/11/17 03:10:33;;;;;;;107.72;38.58;;;7.50;93.70;;;;;;5061874;28;20052;-72
2021/11/17 03:13:12;;;;;;;109.30;38.58;;;7.60;93.70;;;;;;5053638;28;20036;-72
2021/11/17 03:15:40;;;;;;;106.88;39.65;;;7.60;93.60;;;;;;5059160;28;20484;-74
2021/11/17 03:18:40;;;;;;;97.75;37.13;;;7.60;93.60;;;;;;5051675;28;20041;-72
2021/11/17 03:21:25;;;;;;;106.05;37.83;;;7.60;93.70;;;;;;5040756;28;20031;-73
2021/11/17 03:24:19;;;;;;;98.45;36.97;;;7.60;93.70;;;;;;5037831;28;20051;-72
2021/11/17 03:27:06;;;;;;;98.63;37.65;;;7.60;93.60;;;;;;5053570;28;20033;-72
2021/11/17 03:29:52;;;;;;;94.35;36.35;;;7.60;93.70;;;;;;5047714;28;20124;-73
2021/11/17 03:32:35;;;;;;;100.50;39.92;;;7.60;93.70;;;;;;5016436;28;20492;-73
2021/11/17 03:35:03;;;;;;;93.30;36.83;;;7.60;93.60;;;;;;5046610;28;20123;-74
2021/11/17 03:37:47;;;;;;;97.57;37.30;;;7.60;93.70;;;;;;5027947;28;20030;-72
2021/11/17 03:40:28;;;;;;;86.72;35.03;;;7.70;93.70;;;;;;5025234;28;20485;-73
2021/11/17 03:43:14;;;;;;;88.05;35.92;;;7.70;93.60;;;;;;5038008;28;20044;-72
2021/11/17 03:45:57;;;;;;;85.20;35.13;;;7.70;93.60;;;;;;5041672;28;21595;-74
2021/11/17 03:48:33;;;;;;;84.65;34.53;;;7.70;93.60;;;;;;5032735;28;20469;-75
2021/11/17 03:51:13;;;;;;;90.68;35.35;;;7.70;93.70;;;;;;5026924;28;20048;-73
2021/11/17 03:53:47;;;;;;;88.03;36.05;;;7.70;93.70;;;;;;5042704;28;20033;-73
2021/11/17 03:56:35;;;;;;;80.20;33.25;;;7.60;93.70;;;;;;5031142;28;20088;-72
2021/11/17 03:59:38;;;;;;;71.57;32.10;;;7.60;93.80;;;;;;5031754;28;20034;-74
2021/11/17 04:02:13;;;;;;;69.35;29.95;;;7.70;93.80;;;;;;5039683;28;20547;-72
2021/11/17 04:05:05;;;;;;;70.00;32.97;;;7.60;93.80;;;;;;5044527;28;20060;-76
2021/11/17 04:07:43;;;;;;;69.60;30.05;;;7.60;93.80;;;;;;5039999;28;20040;-74
2021/11/17 04:10:17;;;;;;;73.30;31.85;;;7.60;93.70;;;;;;5061925;28;20094;-74
2021/11/17 04:13:01;;;;;;;73.65;31.63;;;7.60;93.80;;;;;;5061625;28;20071;-73
2021/11/17 04:15:53;;;;;;;70.47;30.42;;;7.60;93.80;;;;;;5044313;28;20084;-73
2021/11/17 04:18:51;;;;;;;60.60;28.50;;;7.60;93.80;;;;;;5027728;28;20045;-73
2021/11/17 04:21:22;;;;;;;58.28;26.95;;;7.60;94.00;;;;;;5042167;28;20162;-74
2021/11/17 04:24:19;;;;;;;57.20;27.08;;;7.70;94.00;;;;;;5040169;28;20029;-73
2021/11/17 04:26:50;;;;;;;55.13;27.00;;;7.70;94.00;;;;;;5062733;28;20460;-73
2021/11/17 04:29:22;;;;;;;57.10;26.08;;;7.70;94.00;;;;;;5050178;28;20057;-72
2021/11/17 04:32:21;;;;;;;56.58;26.73;;;7.70;94.00;;;;;;5034321;28;20047;-74
2021/11/17 04:35:00;;;;;;;59.03;26.90;;;7.70;94.00;;;;;;5057203;28;20044;-73
2021/11/17 04:37:38;;;;;;;55.78;27.00;;;7.70;94.00;;;;;;5066627;28;20660;-73
2021/11/17 04:40:04;;;;;;;57.63;26.92;;;7.70;94.00;;;;;;5048814;28;20056;-73
2021/11/17 04:42:35;;;;;;;57.42;27.48;;;7.70;94.00;;;;;;5062198;28;20060;-72
2021/11/17 04:45:07;;;;;;;57.22;25.60;;;7.80;94.00;;;;;;5065603;28;20040;-72
2021/11/17 04:47:39;;;;;;;56.47;27.15;;;7.80;94.00;;;;;;5067998;28;20492;-74
2021/11/17 04:50:43;;;;;;;57.58;26.98;;;7.80;94.00;;;;;;5054960;28;20045;-74
2021/11/17 04:53:24;;;;;;;56.17;26.20;;;7.80;94.00;;;;;;5044068;28;20045;-75
2021/11/17 04:56:12;;;;;;;57.17;25.65;;;7.80;94.00;;;;;;5065978;28;20040;-73
2021/11/17 04:58:53;;;;;;;61.60;26.73;;;7.80;94.00;;;;;;5063301;28;20037;-73
2021/11/17 05:01:27;;;;;;;55.28;26.17;;;7.80;94.00;;;;;;5039919;28;20047;-73
2021/11/17 05:04:08;;;;;;;60.75;28.10;;;7.90;94.00;;;;;;5061890;28;20048;-73
2021/11/17 05:06:43;;;;;;;60.10;26.75;;;7.90;94.00;;;;;;5064773;28;20112;-72
2021/11/17 05:09:37;;;;;;;58.30;27.65;;;7.90;94.00;;;;;;5065166;28;20040;-73
2021/11/17 05:12:18;;;;;;;58.22;27.27;;;7.90;94.00;;;;;;5064004;28;20484;-75
2021/11/17 05:14:43;;;;;;;59.25;27.02;;;8.00;94.10;;;;;;5051669;28;20067;-75
2021/11/17 05:17:33;;;;;;;60.78;27.63;;;8.00;94.00;;;;;;5042539;28;22071;-72
2021/11/17 05:20:04;;;;;;;70.75;29.30;;;7.90;94.00;;;;;;5038680;28;20037;-75
2021/11/17 05:22:33;;;;;;;68.88;29.75;;;8.00;94.10;;;;;;5058342;28;20036;-73
2021/11/17 05:25:29;;;;;;;67.13;29.55;;;8.00;94.10;;;;;;5062886;28;20047;-73
2021/11/17 05:28:26;;;;;;;68.65;29.23;;;8.00;94.10;;;;;;5033398;28;20044;-75
2021/11/17 05:31:22;;;;;;;69.57;28.63;;;8.00;94.10;;;;;;5028021;28;20116;-74
2021/11/17 05:34:10;;;;;;;72.10;30.77;;;8.10;94.10;;;;;;5038710;28;20037;-73
2021/11/17 05:37:06;;;;;;;70.05;30.50;;;8.10;94.00;;;;;;5061269;28;20484;-74
2021/11/17 05:39:40;;;;;;;66.55;29.20;;;8.10;94.00;;;;;;5056642;28;20029;-72
2021/11/17 05:42:47;;;;;;;73.85;30.05;;;8.10;94.10;;;;;;5045607;28;20078;-72
2021/11/17 05:45:25;;;;;;;64.32;28.35;;;8.10;94.00;;;;;;5029538;28;20037;-72
2021/11/17 05:47:57;;;;;;;74.55;29.67;;;8.10;94.00;;;;;;5064777;28;20055;-73
2021/11/17 05:50:38;;;;;;;67.25;29.40;;;8.10;94.00;;;;;;5063684;28;20127;-73
2021/11/17 05:53:13;;;;;;;71.90;30.63;;;8.10;94.00;;;;;;5052172;28;20029;-74
2021/11/17 05:56:12;;;;;;;71.50;29.30;;;8.10;94.00;;;;;;5061521;28;20059;-73
2021/11/17 05:59:15;;;;;;;75.95;31.17;;;8.10;94.00;;;;;;5061998;28;20449;-73
2021/11/17 06:02:26;;;;;;;72.03;30.65;;;8.10;94.10;;;;;;5056408;28;20039;-71
2021/11/17 06:04:53;;;;;;;73.32;29.88;;;8.20;94.10;;;;;;5013422;28;20045;-74
2021/11/17 06:07:18;;;;;;;70.80;29.98;;;8.10;94.00;;;;;;5049200;28;20376;-72
2021/11/17 06:09:44;;;;;;;75.78;31.08;;;8.10;94.00;;;;;;5058721;28;20036;-72
2021/11/17 06:12:14;;;;;;;76.93;32.25;;;8.20;94.10;;;;;;5060539;28;20032;-74
2021/11/17 06:14:50;;;;;;;80.55;33.45;;;8.20;94.00;;;;;;5063371;28;20028;-72
2021/11/17 06:17:23;;;;;;;83.03;34.00;;;8.20;94.10;;;;;;5045886;28;20204;-72
2021/11/17 06:19:51;;;;;;;74.07;33.13;;;8.20;94.10;;;;;;5036047;28;20072;-72
2021/11/17 06:22:19;;;;;;;87.22;34.40;;;8.20;94.10;;;;;;5039194;28;20041;-73
2021/11/17 06:24:47;;;;;;;82.28;34.47;;;8.20;94.10;;;;;;5032764;28;20091;-76
2021/11/17 06:27:18;;;;;;;79.07;32.78;;;8.20;94.10;;;;;;5030387;28;20124;-73
2021/11/17 06:29:47;;;;;;;84.28;32.92;;;8.30;94.10;;;;;;5049119;28;20098;-73
2021/11/17 06:32:14;;;;;;;87.90;32.72;;;8.30;94.10;;;;;;5059436;28;20039;-74
2021/11/17 06:34:45;;;;;;;88.85;34.85;;;8.30;94.10;;;;;;5054246;28;20037;-73
2021/11/17 06:37:14;;;;;;;87.18;35.15;;;8.30;94.10;;;;;;5059086;28;20040;-74
2021/11/17 06:39:43;;;;;;;93.25;35.80;;;8.30;94.20;;;;;;5056406;28;20033;-73
2021/11/17 06:42:13;;;;;;;90.50;37.80;;;8.30;94.20;;;;;;5056558;28;20040;-71
2021/11/17 06:44:40;;;;;;;93.60;35.10;;;8.30;94.20;;;;;;5055281;28;20041;-71
2021/11/17 06:47:06;;;;;;;95.88;37.33;;;8.30;94.20;;;;;;5040521;28;20093;-70
2021/11/17 06:49:32;;;;;;;100.50;35.45;;;8.40;94.20;;;;;;5039959;28;20029;-70
2021/11/17 06:51:58;;;;;;;92.78;36.58;;;8.40;94.30;;;;;;5037418;28;20040;-70
2021/11/17 06:54:23;;;;;;;92.45;36.00;;;8.40;94.20;;;;;;5043198;28;20033;-70
2021/11/17 06:56:49;;;;;;;95.07;36.30;;;8.40;94.30;;;;;;5039680;28;20049;-70
2021/11/17 06:59:15;;;;;;;97.07;38.03;;;8.40;94.20;;;;;;5035611;28;20060;-70
2021/11/17 07:01:41;;;;;;;98.40;37.95;;;8.40;94.30;;;;;;5035499;28;20527;-70
2021/11/17 07:04:07;;;;;;;98.63;37.33;;;8.40;94.30;;;;;;5057651;28;20119;-72
2021/11/17 07:06:33;;;;;;;90.85;37.25;;;8.40;94.20;;;;;;5057737;28;20103;-70
2021/11/17 07:08:59;;;;;;;93.85;37.30;;;8.40;94.20;;;;;;5061117;28;20032;-73
2021/11/17 07:11:26;;;;;;;92.97;35.30;;;8.40;94.20;;;;;;5066808;28;20185;-70
2021/11/17 07:13:52;;;;;;;96.40;37.28;;;8.40;94.20;;;;;;5063006;28;20422;-70
2021/11/17 07:16:18;;;;;;;95.63;37.33;;;8.40;94.20;;;;;;5061093;28;20040;-70
2021/11/17 07:18:44;;;;;;;92.85;37.53;;;8.40;94.20;;;;;;5059114;28;20051;-71
2021/11/17 07:21:10;;;;;;;104.13;40.33;;;8.40;94.30;;;;;;5061507;28;20036;-74
2021/11/17 07:23:36;;;;;;;94.05;38.22;;;8.50;94.30;;;;;;5061397;28;20039;-72
2021/11/17 07:26:03;;;;;;;89.47;37.15;;;8.50;94.30;;;;;;5041864;28;20078;-68
2021/11/17 07:28:29;;;;;;;94.60;40.15;;;8.50;94.20;;;;;;5055835;28;20048;-71
2021/11/17 07:30:56;;;;;;;90.28;39.05;;;8.60;94.30;;;;;;5056368;28;20043;-69
2021/11/17 07:33:22;;;;;;;92.28;37.88;;;8.60;94.20;;;;;;5056616;28;20739;-71
2021/11/17 07:35:50;;;;;;;96.90;38.45;;;8.60;94.20;;;;;;5054995;28;20532;-70
2021/11/17 07:38:19;;;;;;;93.78;37.72;;;8.60;94.30;;;;;;5047885;28;20958;-69
2021/11/17 07:40:46;;;;;;;90.50;37.67;;;8.60;94.20;;;;;;5049765;28;20032;-69
2021/11/17 07:43:14;;;;;;;93.47;37.72;;;8.60;94.20;;;;;;5050951;28;20032;-68
2021/11/17 07:45:41;;;;;;;90.28;40.20;;;8.60;94.20;;;;;;5050934;28;20036;-68
2021/11/17 07:48:08;;;;;;;102.13;39.80;;;8.80;94.20;;;;;;5047889;28;20037;-70
2021/11/17 07:50:35;;;;;;;93.90;40.13;;;8.70;94.20;;;;;;5057122;28;20027;-68
2021/11/17 07:53:01;;;;;;;88.43;40.67;;;8.80;94.20;;;;;;5057186;28;20028;-69
2021/11/17 07:55:27;;;;;;;94.03;39.65;;;8.80;94.10;;;;;;5058333;28;20044;-69
2021/11/17 07:57:54;;;;;;;97.05;39.88;;;8.80;94.10;;;;;;5059562;28;20039;-70
2021/11/17 08:00:29;;;;;;;99.93;40.97;;;8.90;94.10;;;;;;5067685;28;20029;-68
2021/11/17 08:02:55;;;;;;;100.07;41.00;;;9.00;94.20;;;;;;5049508;28;20041;-70
2021/11/17 08:05:24;;;;;;;85.45;38.13;;;8.90;94.10;;;;;;5036837;28;20435;-69
2021/11/17 08:07:50;;;;;;;86.43;39.10;;;9.00;94.10;;;;;;5034771;28;20051;-69
2021/11/17 08:10:26;;;;;;;93.40;40.53;;;9.00;94.10;;;;;;5035858;28;20037;-69
2021/11/17 08:12:52;;;;;;;85.15;37.72;;;9.10;94.00;;;;;;5043772;28;20120;-71
2021/11/17 08:15:18;;;;;;;83.68;38.50;;;9.10;93.90;;;;;;5056680;28;20036;-69
2021/11/17 08:17:44;;;;;;;85.15;38.30;;;9.10;94.00;;;;;;5058335;28;20024;-71
2021/11/17 08:20:13;;;;;;;91.72;41.42;;;9.10;93.90;;;;;;5059277;28;20044;-69
2021/11/17 08:22:40;;;;;;;90.60;40.50;;;9.20;93.90;;;;;;5059606;28;20142;-69
2021/11/17 08:25:07;;;;;;;88.22;39.88;;;9.20;93.90;;;;;;5060897;28;20043;-68
2021/11/17 08:27:33;;;;;;;86.70;38.90;;;9.20;93.90;;;;;;5060651;28;20029;-69
2021/11/17 08:29:59;;;;;;;84.20;39.58;;;9.30;93.80;;;;;;5059098;28;20040;-73
2021/11/17 08:32:25;;;;;;;88.18;39.63;;;9.30;93.80;;;;;;5054378;28;20028;-67
2021/11/17 08:34:51;;;;;;;79.22;38.15;;;9.40;93.70;;;;;;5052647;28;20124;-69
2021/11/17 08:37:17;;;;;;;77.55;37.80;;;9.50;93.60;;;;;;5058124;28;20127;-70
2021/11/17 08:39:45;;;;;;;79.35;39.25;;;9.50;93.50;;;;;;5056971;28;20506;-68
2021/11/17 08:42:15;;;;;;;80.85;39.47;;;9.60;93.50;;;;;;5060723;28;20383;-69
2021/11/17 08:44:43;;;;;;;69.28;36.15;;;9.60;93.50;;;;;;5061509;28;20067;-68
2021/11/17 08:47:16;;;;;;;76.40;38.22;;;9.60;93.40;;;;;;5054405;28;20130;-70
2021/11/17 08:49:43;;;;;;;78.32;38.90;;;9.60;93.30;;;;;;5033554;28;20136;-72
2021/11/17 08:52:09;;;;;;;76.85;37.05;;;9.60;93.40;;;;;;5035997;28;20178;-70
2021/11/17 08:54:36;;;;;;;68.47;36.45;;;9.70;93.30;;;;;;5026267;28;20038;-71
2021/11/17 08:57:02;;;;;;;79.57;38.50;;;9.80;93.20;;;;;;5029500;28;20044;-73
2021/11/17 08:59:33;;;;;;;75.95;39.10;;;9.80;93.10;;;;;;5027333;28;20037;-71
2021/11/17 09:02:04;;;;;;;72.30;37.92;;;10.00;93.20;;;;;;5027649;28;20488;-70
2021/11/17 09:04:29;;;;;;;70.82;38.47;;;10.10;93.20;;;;;;5054452;28;20510;-72
2021/11/17 09:06:56;;;;;;;67.32;37.65;;;10.20;93.00;;;;;;5034962;28;20049;-71
2021/11/17 09:09:22;;;;;;;63.80;35.80;;;10.30;92.70;;;;;;5033291;28;20037;-68
2021/11/17 09:11:48;;;;;;;62.60;36.38;;;10.30;92.60;;;;;;5048171;28;20041;-71
2021/11/17 09:14:14;;;;;;;60.40;34.30;;;10.30;92.40;;;;;;5048453;28;20040;-69
2021/11/17 09:16:41;;;;;;;61.75;35.85;;;10.30;92.30;;;;;;5048943;28;20041;-71
2021/11/17 09:19:08;;;;;;;59.88;35.70;;;10.30;92.30;;;;;;5050940;28;20054;-69
2021/11/17 09:21:37;;;;;;;62.10;36.13;;;10.30;92.40;;;;;;5049464;28;20048;-71
2021/11/17 09:24:05;;;;;;;65.07;37.28;;;10.30;92.50;;;;;;5049369;28;20389;-70
2021/11/17 09:26:32;;;;;;;58.67;35.60;;;10.40;92.50;;;;;;5042944;28;20031;-70
2021/11/17 09:28:59;;;;;;;55.67;35.35;;;10.40;92.40;;;;;;5029133;28;20048;-72
2021/11/17 09:31:27;;;;;;;52.70;33.17;;;10.40;92.30;;;;;;5059551;28;20037;-70
2021/11/17 09:33:54;;;;;;;53.63;35.63;;;10.50;92.20;;;;;;5031967;28;20045;-71
2021/11/17 09:36:23;;;;;;;58.20;36.65;;;10.50;92.20;;;;;;5026107;28;20312;-69
2021/11/17 09:38:51;;;;;;;59.25;35.45;;;10.50;92.20;;;;;;5028336;28;20473;-70
2021/11/17 09:41:23;;;;;;;55.53;34.80;;;10.40;92.30;;;;;;5029479;28;20029;-72
2021/11/17 09:43:53;;;;;;;56.33;36.17;;;10.40;92.30;;;;;;5032600;28;20050;-69
2021/11/17 09:46:23;;;;;;;54.08;34.38;;;10.40;92.40;;;;;;5022223;28;20091;-69
2021/11/17 09:48:53;;;;;;;55.83;35.13;;;10.40;92.60;;;;;;5023536;28;20038;-70
2021/11/17 09:51:32;;;;;;;53.55;33.25;;;10.40;92.60;;;;;;5035387;28;21008;-73
2021/11/17 09:53:58;;;;;;;56.60;34.42;;;10.40;92.60;;;;;;5030065;28;20063;-73
2021/11/17 09:56:36;;;;;;;58.13;34.70;;;10.40;92.50;;;;;;5025364;28;20575;-72
2021/11/17 09:59:06;;;;;;;56.47;35.95;;;10.40;92.70;;;;;;5039126;28;20091;-69
2021/11/17 10:01:40;;;;;;;57.72;36.10;;;10.40;92.80;;;;;;5041851;28;20515;-70
2021/11/17 10:04:24;;;;;;;55.53;33.92;;;10.40;92.80;;;;;;5033078;28;20021;-70
2021/11/17 10:07:53;;;;;;;53.03;35.55;;;10.50;92.90;;;;;;5040662;28;20044;-72
2021/11/17 10:13:17;;;;;;;51.88;33.55;;;10.50;92.80;;;;;;5036560;28;20059;-71
2021/11/17 10:15:47;;;;;;;57.97;33.70;;;10.60;92.90;;;;;;5034572;28;20041;-73
2021/11/17 10:18:25;;;;;;;47.55;32.53;;;10.50;93.00;;;;;;5036645;28;20424;-75
2021/11/17 10:20:54;;;;;;;46.50;30.98;;;10.60;93.10;;;;;;5034630;28;20192;-73
2021/11/17 10:23:26;;;;;;;43.58;30.90;;;10.70;93.10;;;;;;5036311;28;20068;-71
2021/11/17 10:26:12;;;;;;;40.53;29.60;;;10.80;92.90;;;;;;5037540;28;20457;-69
2021/11/17 10:28:53;;;;;;;46.35;31.88;;;10.90;93.00;;;;;;5037457;28;20036;-72
2021/11/17 10:31:45;;;;;;;45.80;31.20;;;11.00;92.80;;;;;;5040546;28;20040;-69
2021/11/17 10:34:29;;;;;;;42.38;29.30;;;11.10;92.80;;;;;;5044319;28;20037;-72
2021/11/17 10:37:42;;;;;;;46.65;30.80;;;11.30;92.70;;;;;;5047568;28;20122;-70
2021/11/17 10:40:22;;;;;;;38.28;27.67;;;11.40;92.60;;;;;;5044100;28;20124;-69
2021/11/17 10:43:02;;;;;;;41.38;28.92;;;11.60;92.30;;;;;;5043770;28;20032;-70
2021/11/17 10:45:50;;;;;;;38.13;29.63;;;11.60;91.80;;;;;;5042438;28;20041;-72
2021/11/17 10:48:32;;;;;;;40.70;29.65;;;11.70;91.60;;;;;;5042106;28;20414;-69
2021/11/17 10:51:18;;;;;;;40.15;29.65;;;11.70;91.50;;;;;;5046021;28;20036;-69
2021/11/17 10:53:50;;;;;;;42.17;31.17;;;11.80;91.20;;;;;;5045201;28;20033;-70
2021/11/17 10:56:19;;;;;;;37.15;26.80;;;11.80;91.00;;;;;;5044723;28;20487;-69
2021/11/17 10:58:52;;;;;;;32.60;25.05;;;11.90;91.00;;;;;;5040670;28;20041;-69
2021/11/17 11:01:23;;;;;;;31.08;24.40;;;11.80;91.10;;;;;;5042798;28;20404;-70
2021/11/17 11:03:55;;;;;;;33.85;24.17;;;11.90;91.20;;;;;;5044508;28;20036;-69
2021/11/17 11:06:28;;;;;;;30.52;21.65;;;12.00;91.10;;;;;;5043524;28;20049;-69
2021/11/17 11:09:07;;;;;;;29.27;20.35;;;12.10;90.70;;;;;;5039457;28;20099;-69
2021/11/17 11:11:39;;;;;;;28.15;20.30;;;12.10;90.70;;;;;;5044016;28;20041;-69
2021/11/17 11:14:20;;;;;;;31.38;21.25;;;12.10;90.50;;;;;;5038270;28;20068;-69
2021/11/17 11:16:50;;;;;;;27.33;18.02;;;12.10;90.10;;;;;;5034265;28;20049;-69
2021/11/17 11:19:20;;;;;;;29.67;19.63;;;12.00;90.30;;;;;;5042354;28;20059;-69
2021/11/17 11:21:46;;;;;;;26.80;19.42;;;12.00;90.40;;;;;;5040838;28;20037;-69
2021/11/17 11:24:25;;;;;;;30.48;19.95;;;12.00;90.20;;;;;;5036683;28;20048;-69
2021/11/17 11:27:00;;;;;;;32.65;18.95;;;12.00;90.10;;;;;;5036647;28;20106;-69
2021/11/17 11:29:30;;;;;;;24.73;16.98;;;12.10;90.20;;;;;;5061284;28;20052;-72
2021/11/17 11:31:59;;;;;;;27.98;16.00;;;12.10;89.70;;;;;;5058069;28;20045;-69
2021/11/17 11:34:34;;;;;;;27.08;13.15;;;12.20;89.30;;;;;;5060449;28;20064;-69
2021/11/17 11:37:02;;;;;;;23.73;10.73;;;12.20;87.90;;;;;;5055128;28;20051;-69
2021/11/17 11:39:32;;;;;;;18.48;6.28;;;12.20;87.30;;;;;;5059111;28;20036;-70
2021/11/17 11:42:23;;;;;;;19.17;5.07;;;12.20;83.20;;;;;;5057830;28;20128;-70
2021/11/17 11:45:15;;;;;;;18.40;4.60;;;12.40;80.70;;;;;;5037498;28;20072;-71
2021/11/17 11:47:51;;;;;;;16.98;4.53;;;12.50;78.40;;;;;;5038585;28;20053;-69
2021/11/17 11:50:32;;;;;;;17.83;3.92;;;12.60;78.50;;;;;;5045259;28;20455;-72
2021/11/17 11:53:28;;;;;;;19.92;4.22;;;12.70;77.90;;;;;;5061684;28;20767;-72
2021/11/17 11:56:01;;;;;;;17.80;3.72;;;12.70;76.50;;;;;;5061074;28;20032;-70
2021/11/17 11:58:27;;;;;;;19.88;4.90;;;12.70;75.90;;;;;;5060538;28;20040;-69
2021/11/17 12:01:08;;;;;;;19.92;3.95;;;12.70;75.40;;;;;;5048633;28;20503;-69
2021/11/17 12:03:43;;;;;;;18.02;4.70;;;12.60;74.60;;;;;;5039998;28;20126;-69
2021/11/17 12:06:15;;;;;;;16.58;4.03;;;12.70;75.60;;;;;;5040601;28;20060;-70
2021/11/17 12:08:59;;;;;;;19.63;4.47;;;12.80;76.50;;;;;;5030541;28;20052;-70
2021/11/17 12:11:31;;;;;;;14.32;3.70;;;12.80;74.70;;;;;;5043783;28;20107;-70
2021/11/17 12:14:07;;;;;;;20.17;5.18;;;12.90;75.40;;;;;;5035850;28;20033;-69
2021/11/17 12:16:42;;;;;;;18.75;4.30;;;12.90;74.90;;;;;;5044704;28;20050;-72
2021/11/17 12:19:39;;;;;;;20.85;4.15;;;12.80;73.50;;;;;;5048835;28;20472;-69
2021/11/17 12:22:11;;;;;;;20.33;3.85;;;12.80;73.80;;;;;;5037234;28;20037;-69
2021/11/17 12:24:41;;;;;;;14.68;3.15;;;12.80;73.80;;;;;;5041177;28;20037;-69
2021/11/17 12:27:31;;;;;;;15.68;3.47;;;12.70;73.30;;;;;;5041427;28;20564;-70
2021/11/17 12:29:59;;;;;;;16.77;3.47;;;12.60;73.10;;;;;;5032736;28;20100;-72
2021/11/17 12:32:28;;;;;;;15.07;3.40;;;12.60;73.70;;;;;;5046987;28;20033;-70
2021/11/17 12:35:09;;;;;;;14.68;3.38;;;12.60;73.90;;;;;;5044023;28;20045;-71
2021/11/17 12:37:46;;;;;;;16.00;3.90;;;12.70;73.60;;;;;;5041158;28;20112;-71
2021/11/17 12:40:31;;;;;;;15.98;5.45;;;12.80;73.30;;;;;;5041531;28;20502;-71
2021/11/17 12:43:00;;;;;;;16.98;3.90;;;12.80;72.80;;;;;;5041217;28;20087;-73
2021/11/17 12:45:41;;;;;;;18.73;3.67;;;13.10;73.70;;;;;;5041117;28;20055;-71
2021/11/17 12:48:20;;;;;;;17.27;4.53;;;13.30;73.50;;;;;;5040647;28;20041;-72
2021/11/17 12:51:00;;;;;;;19.23;3.88;;;13.20;73.60;;;;;;5045848;28;20148;-72
2021/11/17 12:53:35;;;;;;;16.00;3.85;;;13.10;73.60;;;;;;5043960;28;20028;-71
2021/11/17 12:56:11;;;;;;;22.00;4.95;;;13.00;73.40;;;;;;5039683;28;20050;-70
2021/11/17 12:58:47;;;;;;;13.38;3.60;;;12.90;74.10;;;;;;5042540;28;20041;-70
2021/11/17 13:01:21;;;;;;;21.27;3.80;;;12.70;74.50;;;;;;5043940;28;20037;-73
2021/11/17 13:03:50;;;;;;;18.40;4.00;;;12.60;74.90;;;;;;5041352;28;20040;-71
2021/11/17 13:06:16;;;;;;;12.95;3.83;;;12.60;76.20;;;;;;5040973;28;20052;-71
2021/11/17 13:08:42;;;;;;;17.38;4.10;;;12.60;75.90;;;;;;5036866;28;20082;-71
2021/11/17 13:11:18;;;;;;;16.77;3.83;;;12.60;75.90;;;;;;5042053;28;20472;-71
2021/11/17 13:13:55;;;;;;;17.52;4.40;;;12.60;76.20;;;;;;5039245;28;20088;-72
2021/11/17 13:16:25;;;;;;;16.65;4.88;;;12.60;76.20;;;;;;5041719;28;21552;-70
2021/11/17 13:19:00;;;;;;;20.17;4.55;;;12.60;76.70;;;;;;5034678;28;20033;-69
2021/11/17 13:21:36;;;;;;;24.17;4.65;;;12.60;76.70;;;;;;5072681;28;20032;-70
2021/11/17 13:24:21;;;;;;;18.55;5.03;;;12.60;76.90;;;;;;5058747;28;20734;-71
2021/11/17 13:26:53;;;;;;;23.42;5.47;;;12.60;77.50;;;;;;5061970;28;20051;-69
2021/11/17 13:29:21;;;;;;;19.95;5.05;;;12.60;77.10;;;;;;5064774;28;20504;-70
2021/11/17 13:31:48;;;;;;;19.98;4.75;;;12.60;77.30;;;;;;5059282;28;20043;-70
2021/11/17 13:34:29;;;;;;;19.80;4.65;;;12.60;77.60;;;;;;5065880;28;20093;-70
2021/11/17 13:37:13;;;;;;;21.50;4.97;;;12.50;77.70;;;;;;5063950;28;20040;-69
2021/11/17 13:39:39;;;;;;;22.85;4.47;;;12.40;77.70;;;;;;5063345;28;20029;-70
2021/11/17 13:42:05;;;;;;;13.85;4.53;;;12.40;77.60;;;;;;5063560;28;20087;-72
2021/11/17 13:44:30;;;;;;;18.52;4.60;;;12.30;77.50;;;;;;5062600;28;20453;-70
2021/11/17 13:47:13;;;;;;;15.45;3.70;;;12.30;78.20;;;;;;5064710;28;20040;-70
2021/11/17 13:49:42;;;;;;;18.10;4.22;;;12.30;77.70;;;;;;5055180;28;20067;-71
2021/11/17 13:52:10;;;;;;;14.80;4.18;;;12.20;77.00;;;;;;5057127;28;20041;-71
2021/11/17 13:54:38;;;;;;;16.05;4.13;;;12.20;77.30;;;;;;5065134;28;20576;-70
2021/11/17 13:57:09;;;;;;;11.23;3.35;;;12.10;76.10;;;;;;5061905;28;20053;-71
2021/11/17 13:59:36;;;;;;;14.23;3.47;;;12.10;76.10;;;;;;5065295;28;20036;-71
2021/11/17 14:02:03;;;;;;;15.57;3.65;;;12.00;76.10;;;;;;5062170;28;20037;-74
2021/11/17 14:04:29;;;;;;;13.88;3.88;;;12.00;76.40;;;;;;5059881;28;20155;-72
2021/11/17 14:06:57;;;;;;;20.35;4.03;;;11.90;76.90;;;;;;5057964;28;20040;-69
2021/11/17 14:09:26;;;;;;;18.95;4.25;;;11.90;77.10;;;;;;5063704;28;20430;-69
2021/11/17 14:11:53;;;;;;;14.73;4.18;;;11.90;77.50;;;;;;5057389;28;20124;-73
2021/11/17 14:14:20;;;;;;;17.98;5.05;;;11.80;77.90;;;;;;5061364;28;20115;-70
2021/11/17 14:16:47;;;;;;;15.77;4.38;;;11.80;78.10;;;;;;5062853;28;20037;-72
2021/11/17 14:19:13;;;;;;;14.63;3.90;;;11.90;78.30;;;;;;5056886;28;20028;-70
2021/11/17 14:21:40;;;;;;;16.15;4.43;;;11.80;78.20;;;;;;5059606;28;20025;-72
2021/11/17 14:24:06;;;;;;;23.50;6.78;;;11.80;78.60;;;;;;5060603;28;20029;-71
2021/11/17 14:26:34;;;;;;;13.25;4.45;;;11.90;78.30;;;;;;5070586;28;20028;-69
2021/11/17 14:29:24;;;;;;;17.38;4.20;;;11.90;78.50;;;;;;5053889;28;20088;-70
2021/11/17 14:31:59;;;;;;;14.23;3.88;;;11.90;78.70;;;;;;5040550;28;20736;-69
2021/11/17 14:34:28;;;;;;;18.00;4.88;;;11.90;78.70;;;;;;5040074;28;20025;-74
2021/11/17 14:37:03;;;;;;;15.32;3.90;;;11.80;78.40;;;;;;5039787;28;20136;-70
2021/11/17 14:39:30;;;;;;;17.15;4.35;;;11.70;79.10;;;;;;5041135;28;20045;-69
2021/11/17 14:41:56;;;;;;;15.70;4.35;;;11.70;79.30;;;;;;5034202;28;20029;-70
2021/11/17 14:44:22;;;;;;;14.07;4.00;;;11.70;79.60;;;;;;5041284;28;20029;-72
2021/11/17 14:46:48;;;;;;;16.90;4.78;;;11.60;79.70;;;;;;5034526;28;20037;-69
2021/11/17 14:49:14;;;;;;;17.95;3.70;;;11.60;79.80;;;;;;5032192;28;20033;-69
2021/11/17 14:51:40;;;;;;;17.35;4.30;;;11.50;80.20;;;;;;5039890;28;20546;-70
2021/11/17 14:54:06;;;;;;;16.60;5.07;;;11.50;80.20;;;;;;5036300;28;20075;-71
2021/11/17 14:56:32;;;;;;;16.58;4.32;;;11.40;80.20;;;;;;5042286;28;20042;-69
2021/11/17 14:58:58;;;;;;;18.58;4.60;;;11.40;80.50;;;;;;5056906;28;20025;-72
2021/11/17 15:01:28;;;;;;;15.60;4.57;;;11.30;80.20;;;;;;5038409;28;20028;-70
2021/11/17 15:03:54;;;;;;;14.48;4.10;;;11.30;80.00;;;;;;5041333;28;20043;-70
2021/11/17 15:06:22;;;;;;;18.95;5.18;;;11.20;80.10;;;;;;5036841;28;20061;-73
2021/11/17 15:08:48;;;;;;;15.55;4.40;;;11.20;80.50;;;;;;5036985;28;20116;-71
2021/11/17 15:11:16;;;;;;;14.68;3.75;;;11.20;80.50;;;;;;5048870;28;20461;-71
2021/11/17 15:13:42;;;;;;;17.15;5.20;;;11.10;80.60;;;;;;5039159;28;20029;-72
2021/11/17 15:16:11;;;;;;;13.55;4.30;;;11.10;80.90;;;;;;5036779;28;20560;-72
2021/11/17 15:18:40;;;;;;;21.10;4.40;;;11.00;81.10;;;;;;5045223;28;20452;-71
2021/11/17 15:21:06;;;;;;;14.10;4.15;;;10.90;81.20;;;;;;5054465;28;20029;-69
2021/11/17 15:23:32;;;;;;;16.38;4.22;;;10.90;81.50;;;;;;5062845;28;20032;-69
2021/11/17 15:26:01;;;;;;;16.60;4.80;;;10.80;81.70;;;;;;5065038;28;20044;-73
2021/11/17 15:28:31;;;;;;;16.50;4.63;;;10.80;81.70;;;;;;5038000;28;21019;-70
2021/11/17 15:31:03;;;;;;;15.07;3.90;;;10.70;81.90;;;;;;5040841;28;20051;-69
2021/11/17 15:33:31;;;;;;;16.92;4.35;;;10.70;81.90;;;;;;5061696;28;20040;-70
2021/11/17 15:35:57;;;;;;;17.10;4.43;;;10.60;82.00;;;;;;5056811;28;20044;-72
2021/11/17 15:38:23;;;;;;;14.05;3.40;;;10.50;82.10;;;;;;5039359;28;20052;-70